sensor_id;sensor_type;location;lat;lon;timestamp;pressure;altitude;pressure_sealevel;temperature;humidity
69855;BME280;57146;48.140;16.304;2023-03-15T00:00:58;98411.78;;;7.66;56.42
69855;BME280;57146;48.140;16.304;2023-03-15T00:03:24;98415.78;;;7.64;56.29
69855;BME280;57146;48.140;16.304;2023-03-15T00:05:51;98412.69;;;7.62;56.44
69855;BME280;57146;48.140;16.304;2023-03-15T00:08:19;98412.22;;;7.60;55.81
69855;BME280;57146;48.140;16.304;2023-03-15T00:10:46;98426.66;;;7.57;55.85
69855;BME280;57146;48.140;16.304;2023-03-15T00:13:15;98417.00;;;7.58;55.97
69855;BME280;57146;48.140;16.304;2023-03-15T00:15:50;98424.03;;;7.57;56.15
69855;BME280;57146;48.140;16.304;2023-03-15T00:18:42;98427.75;;;7.56;56.32
69855;BME280;57146;48.140;16.304;2023-03-15T00:21:13;98429.28;;;7.57;56.10
69855;BME280;57146;48.140;16.304;2023-03-15T00:23:41;98426.66;;;7.57;56.07
69855;BME280;57146;48.140;16.304;2023-03-15T00:26:10;98429.78;;;7.59;55.63
69855;BME280;57146;48.140;16.304;2023-03-15T00:28:38;98426.38;;;7.59;55.76
69855;BME280;57146;48.140;16.304;2023-03-15T00:31:14;98441.03;;;7.60;56.07
69855;BME280;57146;48.140;16.304;2023-03-15T00:34:05;98440.25;;;7.59;55.99
69855;BME280;57146;48.140;16.304;2023-03-15T00:36:32;98446.44;;;7.63;55.45
69855;BME280;57146;48.140;16.304;2023-03-15T00:38:58;98447.78;;;7.61;55.65
69855;BME280;57146;48.140;16.304;2023-03-15T00:41:27;98436.56;;;7.60;55.65
69855;BME280;57146;48.140;16.304;2023-03-15T00:43:55;98440.25;;;7.59;55.51
69855;BME280;57146;48.140;16.304;2023-03-15T00:46:21;98446.84;;;7.57;55.62
69855;BME280;57146;48.140;16.304;2023-03-15T00:48:50;98450.72;;;7.59;55.19
69855;BME280;57146;48.140;16.304;2023-03-15T00:51:22;98446.25;;;7.60;54.70
69855;BME280;57146;48.140;16.304;2023-03-15T00:53:52;98451.50;;;7.60;55.05
69855;BME280;57146;48.140;16.304;2023-03-15T00:56:24;98446.25;;;7.60;55.52
69855;BME280;57146;48.140;16.304;2023-03-15T00:58:57;98456.56;;;7.56;55.34
69855;BME280;57146;48.140;16.304;2023-03-15T01:01:27;98470.25;;;7.53;55.42
69855;BME280;57146;48.140;16.304;2023-03-15T01:03:55;98457.47;;;7.52;55.15
69855;BME280;57146;48.140;16.304;2023-03-15T01:06:26;98465.31;;;7.52;55.64
69855;BME280;57146;48.140;16.304;2023-03-15T01:08:53;98469.78;;;7.51;55.80
69855;BME280;57146;48.140;16.304;2023-03-15T01:11:24;98466.69;;;7.49;55.83
69855;BME280;57146;48.140;16.304;2023-03-15T01:13:55;98470.66;;;7.47;56.00
69855;BME280;57146;48.140;16.304;2023-03-15T01:16:23;98472.81;;;7.44;56.28
69855;BME280;57146;48.140;16.304;2023-03-15T01:18:51;98471.56;;;7.42;56.36
69855;BME280;57146;48.140;16.304;2023-03-15T01:21:19;98482.63;;;7.39;56.47
69855;BME280;57146;48.140;16.304;2023-03-15T01:23:47;98491.56;;;7.38;56.48
69855;BME280;57146;48.140;16.304;2023-03-15T01:26:19;98495.72;;;7.39;56.71
69855;BME280;57146;48.140;16.304;2023-03-15T01:28:47;98485.56;;;7.37;57.08
69855;BME280;57146;48.140;16.304;2023-03-15T01:31:23;98496.50;;;7.39;56.81
69855;BME280;57146;48.140;16.304;2023-03-15T01:33:52;98499.72;;;7.36;57.07
69855;BME280;57146;48.140;16.304;2023-03-15T01:36:19;98510.47;;;7.35;56.61
69855;BME280;57146;48.140;16.304;2023-03-15T01:38:46;98503.69;;;7.34;56.71
69855;BME280;57146;48.140;16.304;2023-03-15T01:41:17;98512.91;;;7.31;56.99
69855;BME280;57146;48.140;16.304;2023-03-15T01:43:44;98515.34;;;7.28;58.00
69855;BME280;57146;48.140;16.304;2023-03-15T01:46:18;98521.66;;;7.27;59.42
69855;BME280;57146;48.140;16.304;2023-03-15T01:49:26;98525.44;;;7.20;61.08
69855;BME280;57146;48.140;16.304;2023-03-15T01:52:07;98538.34;;;7.17;61.22
69855;BME280;57146;48.140;16.304;2023-03-15T01:54:45;98545.44;;;7.16;62.18
69855;BME280;57146;48.140;16.304;2023-03-15T01:57:58;98530.72;;;7.07;63.90
69855;BME280;57146;48.140;16.304;2023-03-15T02:00:29;98545.47;;;7.03;65.63
69855;BME280;57146;48.140;16.304;2023-03-15T02:03:17;98549.94;;;6.88;66.84
69855;BME280;57146;48.140;16.304;2023-03-15T02:05:51;98554.28;;;6.79;67.30
69855;BME280;57146;48.140;16.304;2023-03-15T02:08:53;98567.97;;;6.76;67.73
69855;BME280;57146;48.140;16.304;2023-03-15T02:11:26;98579.00;;;6.73;67.71
69855;BME280;57146;48.140;16.304;2023-03-15T02:13:56;98585.41;;;6.67;67.65
69855;BME280;57146;48.140;16.304;2023-03-15T02:16:25;98592.16;;;6.54;67.36
69855;BME280;57146;48.140;16.304;2023-03-15T02:18:58;98586.44;;;6.52;67.25
69855;BME280;57146;48.140;16.304;2023-03-15T02:27:04;98571.88;;;6.32;67.70
69855;BME280;57146;48.140;16.304;2023-03-15T02:29:33;98570.91;;;6.28;67.80
69855;BME280;57146;48.140;16.304;2023-03-15T02:32:00;98572.06;;;6.22;68.21
69855;BME280;57146;48.140;16.304;2023-03-15T02:34:28;98573.44;;;6.19;68.11
69855;BME280;57146;48.140;16.304;2023-03-15T02:36:55;98572.16;;;6.17;68.30
69855;BME280;57146;48.140;16.304;2023-03-15T02:39:22;98571.59;;;6.20;68.02
69855;BME280;57146;48.140;16.304;2023-03-15T02:41:56;98563.97;;;6.05;68.50
69855;BME280;57146;48.140;16.304;2023-03-15T02:44:35;98568.38;;;6.09;68.07
69855;BME280;57146;48.140;16.304;2023-03-15T02:47:13;98577.84;;;6.05;68.13
69855;BME280;57146;48.140;16.304;2023-03-15T02:49:44;98575.22;;;6.05;68.21
69855;BME280;57146;48.140;16.304;2023-03-15T02:52:12;98575.59;;;5.98;68.04
69855;BME280;57146;48.140;16.304;2023-03-15T02:54:40;98575.66;;;5.93;68.53
69855;BME280;57146;48.140;16.304;2023-03-15T02:57:07;98588.78;;;5.88;68.35
69855;BME280;57146;48.140;16.304;2023-03-15T02:59:36;98586.75;;;5.85;68.47
69855;BME280;57146;48.140;16.304;2023-03-15T03:02:04;98581.97;;;5.73;68.44
69855;BME280;57146;48.140;16.304;2023-03-15T03:04:34;98588.50;;;5.71;68.43
69855;BME280;57146;48.140;16.304;2023-03-15T03:07:00;98589.03;;;5.73;68.70
69855;BME280;57146;48.140;16.304;2023-03-15T03:09:36;98589.09;;;5.68;68.29
69855;BME280;57146;48.140;16.304;2023-03-15T03:12:04;98591.06;;;5.57;68.46
69855;BME280;57146;48.140;16.304;2023-03-15T03:14:32;98595.84;;;5.50;68.55
69855;BME280;57146;48.140;16.304;2023-03-15T03:17:00;98598.25;;;5.46;68.55
69855;BME280;57146;48.140;16.304;2023-03-15T03:19:27;98615.25;;;5.44;68.70
69855;BME280;57146;48.140;16.304;2023-03-15T03:21:55;98606.72;;;5.38;68.93
69855;BME280;57146;48.140;16.304;2023-03-15T03:24:25;98611.72;;;5.35;69.03
69855;BME280;57146;48.140;16.304;2023-03-15T03:26:53;98608.13;;;5.31;68.65
69855;BME280;57146;48.140;16.304;2023-03-15T03:29:21;98603.69;;;5.31;69.09
69855;BME280;57146;48.140;16.304;2023-03-15T03:31:48;98613.06;;;5.32;69.06
69855;BME280;57146;48.140;16.304;2023-03-15T03:34:40;98617.78;;;5.30;69.48
69855;BME280;57146;48.140;16.304;2023-03-15T03:37:08;98615.66;;;5.32;69.14
69855;BME280;57146;48.140;16.304;2023-03-15T03:39:58;98606.56;;;5.29;68.86
69855;BME280;57146;48.140;16.304;2023-03-15T03:42:25;98615.44;;;5.28;69.14
69855;BME280;57146;48.140;16.304;2023-03-15T03:44:52;98623.50;;;5.32;69.02
69855;BME280;57146;48.140;16.304;2023-03-15T03:47:20;98632.38;;;5.31;69.36
69855;BME280;57146;48.140;16.304;2023-03-15T03:49:47;98634.59;;;5.19;69.67
69855;BME280;57146;48.140;16.304;2023-03-15T03:52:14;98641.50;;;5.10;69.49
69855;BME280;57146;48.140;16.304;2023-03-15T03:54:43;98641.84;;;5.03;69.43
69855;BME280;57146;48.140;16.304;2023-03-15T03:57:10;98637.91;;;5.06;69.75
69855;BME280;57146;48.140;16.304;2023-03-15T03:59:39;98642.63;;;5.03;70.17
69855;BME280;57146;48.140;16.304;2023-03-15T04:02:07;98634.78;;;5.03;70.11
69855;BME280;57146;48.140;16.304;2023-03-15T04:04:37;98645.75;;;5.06;69.61
69855;BME280;57146;48.140;16.304;2023-03-15T04:07:04;98646.22;;;5.08;69.44
69855;BME280;57146;48.140;16.304;2023-03-15T04:09:35;98643.41;;;5.04;69.59
69855;BME280;57146;48.140;16.304;2023-03-15T04:12:04;98647.78;;;5.09;69.61
69855;BME280;57146;48.140;16.304;2023-03-15T04:14:33;98647.22;;;5.12;69.40
69855;BME280;57146;48.140;16.304;2023-03-15T04:17:01;98645.97;;;5.09;69.01
69855;BME280;57146;48.140;16.304;2023-03-15T04:19:29;98652.19;;;5.13;68.72
69855;BME280;57146;48.140;16.304;2023-03-15T04:21:57;98664.47;;;5.08;67.92
69855;BME280;57146;48.140;16.304;2023-03-15T04:24:35;98661.44;;;5.00;67.08
69855;BME280;57146;48.140;16.304;2023-03-15T04:27:09;98664.13;;;4.90;66.14
69855;BME280;57146;48.140;16.304;2023-03-15T04:29:54;98671.50;;;4.83;66.41
69855;BME280;57146;48.140;16.304;2023-03-15T04:32:23;98684.56;;;4.83;64.83
69855;BME280;57146;48.140;16.304;2023-03-15T04:35:13;98691.13;;;4.80;62.40
69855;BME280;57146;48.140;16.304;2023-03-15T04:38:12;98689.38;;;4.71;60.95
69855;BME280;57146;48.140;16.304;2023-03-15T04:40:54;98692.59;;;4.63;60.78
69855;BME280;57146;48.140;16.304;2023-03-15T04:43:34;98700.19;;;4.54;59.34
69855;BME280;57146;48.140;16.304;2023-03-15T04:46:21;98712.50;;;4.48;60.13
69855;BME280;57146;48.140;16.304;2023-03-15T04:49:08;98712.53;;;4.43;59.39
69855;BME280;57146;48.140;16.304;2023-03-15T04:51:50;98719.81;;;4.46;58.48
69855;BME280;57146;48.140;16.304;2023-03-15T04:54:41;98729.72;;;4.44;58.32
69855;BME280;57146;48.140;16.304;2023-03-15T04:57:16;98734.16;;;4.44;58.84
69855;BME280;57146;48.140;16.304;2023-03-15T04:59:52;98728.72;;;4.40;57.62
69855;BME280;57146;48.140;16.304;2023-03-15T05:02:41;98739.97;;;4.36;57.02
69855;BME280;57146;48.140;16.304;2023-03-15T05:05:20;98752.97;;;4.36;58.16
69855;BME280;57146;48.140;16.304;2023-03-15T05:08:01;98747.81;;;4.30;56.99
69855;BME280;57146;48.140;16.304;2023-03-15T05:10:48;98751.72;;;4.28;56.97
69855;BME280;57146;48.140;16.304;2023-03-15T05:13:41;98754.84;;;4.30;57.68
69855;BME280;57146;48.140;16.304;2023-03-15T05:16:37;98742.31;;;4.32;57.25
69855;BME280;57146;48.140;16.304;2023-03-15T05:19:30;98750.19;;;4.27;56.92
69855;BME280;57146;48.140;16.304;2023-03-15T05:22:12;98754.34;;;4.23;57.13
69855;BME280;57146;48.140;16.304;2023-03-15T05:25:05;98760.91;;;4.20;57.00
69855;BME280;57146;48.140;16.304;2023-03-15T05:27:59;98766.88;;;4.21;56.65
69855;BME280;57146;48.140;16.304;2023-03-15T05:30:36;98763.75;;;4.19;56.11
69855;BME280;57146;48.140;16.304;2023-03-15T05:33:38;98757.00;;;4.13;56.49
69855;BME280;57146;48.140;16.304;2023-03-15T05:36:26;98767.47;;;4.07;56.19
69855;BME280;57146;48.140;16.304;2023-03-15T05:39:18;98769.03;;;4.08;56.22
69855;BME280;57146;48.140;16.304;2023-03-15T05:42:08;98769.78;;;4.09;56.77
69855;BME280;57146;48.140;16.304;2023-03-15T05:45:11;98769.78;;;4.09;55.95
69855;BME280;57146;48.140;16.304;2023-03-15T05:48:04;98765.94;;;4.06;55.71
69855;BME280;57146;48.140;16.304;2023-03-15T05:50:55;98773.75;;;4.01;55.08
69855;BME280;57146;48.140;16.304;2023-03-15T05:53:21;98787.31;;;3.98;55.09
69855;BME280;57146;48.140;16.304;2023-03-15T05:56:24;98789.16;;;3.93;55.26
69855;BME280;57146;48.140;16.304;2023-03-15T05:59:11;98807.41;;;3.93;55.16
69855;BME280;57146;48.140;16.304;2023-03-15T06:01:57;98812.59;;;3.88;54.77
69855;BME280;57146;48.140;16.304;2023-03-15T06:04:30;98810.25;;;3.91;54.42
69855;BME280;57146;48.140;16.304;2023-03-15T06:06:58;98815.47;;;3.91;54.51
69855;BME280;57146;48.140;16.304;2023-03-15T06:09:26;98821.47;;;3.92;54.42
69855;BME280;57146;48.140;16.304;2023-03-15T06:11:53;98831.34;;;3.90;54.42
69855;BME280;57146;48.140;16.304;2023-03-15T06:14:20;98833.69;;;3.91;54.83
69855;BME280;57146;48.140;16.304;2023-03-15T06:16:50;98831.84;;;3.97;53.94
69855;BME280;57146;48.140;16.304;2023-03-15T06:19:18;98841.75;;;4.00;53.97
69855;BME280;57146;48.140;16.304;2023-03-15T06:21:46;98851.34;;;4.04;54.42
69855;BME280;57146;48.140;16.304;2023-03-15T06:24:21;98847.16;;;4.08;55.15
69855;BME280;57146;48.140;16.304;2023-03-15T06:26:48;98854.44;;;4.12;53.74
69855;BME280;57146;48.140;16.304;2023-03-15T06:29:15;98856.56;;;4.10;53.77
69855;BME280;57146;48.140;16.304;2023-03-15T06:31:46;98854.47;;;4.06;53.78
69855;BME280;57146;48.140;16.304;2023-03-15T06:34:15;98850.31;;;4.05;53.78
69855;BME280;57146;48.140;16.304;2023-03-15T06:36:43;98869.59;;;4.10;53.58
69855;BME280;57146;48.140;16.304;2023-03-15T06:39:13;98871.38;;;4.14;52.61
69855;BME280;57146;48.140;16.304;2023-03-15T06:41:40;98876.31;;;4.16;52.66
69855;BME280;57146;48.140;16.304;2023-03-15T06:44:33;98876.84;;;4.18;52.93
69855;BME280;57146;48.140;16.304;2023-03-15T06:47:05;98886.44;;;4.22;53.04
69855;BME280;57146;48.140;16.304;2023-03-15T06:49:32;98891.94;;;4.21;52.37
69855;BME280;57146;48.140;16.304;2023-03-15T06:52:00;98898.69;;;4.22;52.70
69855;BME280;57146;48.140;16.304;2023-03-15T06:54:27;98894.03;;;4.19;51.66
69855;BME280;57146;48.140;16.304;2023-03-15T06:56:55;98902.59;;;4.19;51.71
69855;BME280;57146;48.140;16.304;2023-03-15T06:59:23;98913.56;;;4.21;52.09
69855;BME280;57146;48.140;16.304;2023-03-15T07:01:51;98907.28;;;4.22;51.41
69855;BME280;57146;48.140;16.304;2023-03-15T07:04:18;98918.00;;;4.21;51.17
69855;BME280;57146;48.140;16.304;2023-03-15T07:06:45;98924.25;;;4.20;51.10
69855;BME280;57146;48.140;16.304;2023-03-15T07:09:12;98927.88;;;4.24;51.26
69855;BME280;57146;48.140;16.304;2023-03-15T07:11:39;98933.34;;;4.27;51.17
69855;BME280;57146;48.140;16.304;2023-03-15T07:14:06;98945.81;;;4.36;51.27
69855;BME280;57146;48.140;16.304;2023-03-15T07:16:32;98951.84;;;4.31;50.75
69855;BME280;57146;48.140;16.304;2023-03-15T07:19:00;98959.13;;;4.29;50.21
69855;BME280;57146;48.140;16.304;2023-03-15T07:21:27;98959.66;;;4.31;50.55
69855;BME280;57146;48.140;16.304;2023-03-15T07:23:54;98970.56;;;4.33;51.10
69855;BME280;57146;48.140;16.304;2023-03-15T07:26:23;98971.91;;;4.25;50.28
69855;BME280;57146;48.140;16.304;2023-03-15T07:28:50;98970.06;;;4.26;50.66
69855;BME280;57146;48.140;16.304;2023-03-15T07:31:17;98978.91;;;4.30;51.10
69855;BME280;57146;48.140;16.304;2023-03-15T07:33:45;98978.91;;;4.30;50.73
69855;BME280;57146;48.140;16.304;2023-03-15T07:36:13;98983.84;;;4.37;51.33
69855;BME280;57146;48.140;16.304;2023-03-15T07:38:40;98976.28;;;4.40;49.45
69855;BME280;57146;48.140;16.304;2023-03-15T07:41:34;98989.56;;;4.44;50.16
69855;BME280;57146;48.140;16.304;2023-03-15T07:44:12;98986.19;;;4.48;49.74
69855;BME280;57146;48.140;16.304;2023-03-15T07:46:38;98989.81;;;4.52;50.01
69855;BME280;57146;48.140;16.304;2023-03-15T07:49:06;99000.22;;;4.57;49.66
69855;BME280;57146;48.140;16.304;2023-03-15T07:51:32;99000.75;;;4.54;49.30
69855;BME280;57146;48.140;16.304;2023-03-15T07:53:59;99009.88;;;4.57;49.69
69855;BME280;57146;48.140;16.304;2023-03-15T07:56:26;99004.66;;;4.57;48.91
69855;BME280;57146;48.140;16.304;2023-03-15T07:58:54;99001.50;;;4.55;49.00
69855;BME280;57146;48.140;16.304;2023-03-15T08:01:21;98988.72;;;4.59;49.26
69855;BME280;57146;48.140;16.304;2023-03-15T08:03:48;99001.50;;;4.60;49.24
69855;BME280;57146;48.140;16.304;2023-03-15T08:06:15;99007.53;;;4.55;49.38
69855;BME280;57146;48.140;16.304;2023-03-15T08:08:41;99011.66;;;4.62;50.10
69855;BME280;57146;48.140;16.304;2023-03-15T08:11:13;99009.06;;;4.67;49.63
69855;BME280;57146;48.140;16.304;2023-03-15T08:13:40;99016.31;;;4.75;50.14
69855;BME280;57146;48.140;16.304;2023-03-15T08:16:07;99019.91;;;4.89;49.63
69855;BME280;57146;48.140;16.304;2023-03-15T08:18:34;99019.88;;;4.94;49.39
69855;BME280;57146;48.140;16.304;2023-03-15T08:21:01;99030.00;;;5.06;49.13
69855;BME280;57146;48.140;16.304;2023-03-15T08:23:27;99029.69;;;5.18;48.53
69855;BME280;57146;48.140;16.304;2023-03-15T08:25:55;99029.63;;;5.28;48.53
69855;BME280;57146;48.140;16.304;2023-03-15T08:28:22;99036.69;;;5.27;48.50
69855;BME280;57146;48.140;16.304;2023-03-15T08:30:49;99047.31;;;5.41;49.65
69855;BME280;57146;48.140;16.304;2023-03-15T08:33:17;99059.09;;;5.34;47.90
69855;BME280;57146;48.140;16.304;2023-03-15T08:35:44;99038.00;;;5.25;48.07
69855;BME280;57146;48.140;16.304;2023-03-15T08:38:11;99054.41;;;5.31;47.91
69855;BME280;57146;48.140;16.304;2023-03-15T08:40:37;99054.28;;;5.51;48.19
69855;BME280;57146;48.140;16.304;2023-03-15T08:43:05;99052.13;;;5.63;47.21
69855;BME280;57146;48.140;16.304;2023-03-15T08:45:32;99060.44;;;5.70;47.20
69855;BME280;57146;48.140;16.304;2023-03-15T08:48:20;99055.78;;;5.62;47.14
69855;BME280;57146;48.140;16.304;2023-03-15T08:50:47;99065.19;;;5.63;46.83
69855;BME280;57146;48.140;16.304;2023-03-15T08:53:13;99068.03;;;5.67;46.91
69855;BME280;57146;48.140;16.304;2023-03-15T08:55:44;99074.22;;;5.76;47.13
69855;BME280;57146;48.140;16.304;2023-03-15T08:58:11;99073.19;;;5.77;46.75
69855;BME280;57146;48.140;16.304;2023-03-15T09:00:38;99075.78;;;5.77;46.45
69855;BME280;57146;48.140;16.304;2023-03-15T09:03:04;99076.03;;;5.81;46.77
69855;BME280;57146;48.140;16.304;2023-03-15T09:05:31;99079.34;;;5.91;47.09
69855;BME280;57146;48.140;16.304;2023-03-15T09:07:58;99077.25;;;5.93;46.79
69855;BME280;57146;48.140;16.304;2023-03-15T09:10:25;99077.16;;;6.04;46.17
69855;BME280;57146;48.140;16.304;2023-03-15T09:12:52;99075.81;;;6.11;45.44
69855;BME280;57146;48.140;16.304;2023-03-15T09:15:21;99084.25;;;6.03;45.51
69855;BME280;57146;48.140;16.304;2023-03-15T09:17:49;99097.59;;;5.96;46.01
69855;BME280;57146;48.140;16.304;2023-03-15T09:20:16;99096.00;;;6.00;45.90
69855;BME280;57146;48.140;16.304;2023-03-15T09:22:50;99102.22;;;6.10;45.99
69855;BME280;57146;48.140;16.304;2023-03-15T09:25:20;99097.47;;;6.17;46.12
69855;BME280;57146;48.140;16.304;2023-03-15T09:27:47;99105.75;;;6.24;46.11
69855;BME280;57146;48.140;16.304;2023-03-15T09:30:14;99104.16;;;6.28;45.98
69855;BME280;57146;48.140;16.304;2023-03-15T09:32:41;99118.84;;;6.24;45.77
69855;BME280;57146;48.140;16.304;2023-03-15T09:35:13;99111.63;;;6.11;46.18
69855;BME280;57146;48.140;16.304;2023-03-15T09:37:42;99114.66;;;6.23;46.30
69855;BME280;57146;48.140;16.304;2023-03-15T09:40:28;99126.91;;;6.28;46.46
69855;BME280;57146;48.140;16.304;2023-03-15T09:48:50;99125.81;;;5.99;46.28
69855;BME280;57146;48.140;16.304;2023-03-15T09:51:32;99126.88;;;5.93;46.67
69855;BME280;57146;48.140;16.304;2023-03-15T09:56:44;99144.63;;;5.96;45.73
69855;BME280;57146;48.140;16.304;2023-03-15T09:59:14;99142.03;;;5.91;45.22
69855;BME280;57146;48.140;16.304;2023-03-15T10:01:41;99148.66;;;5.79;45.41
69855;BME280;57146;48.140;16.304;2023-03-15T10:06:56;99136.03;;;5.91;45.32
69855;BME280;57146;48.140;16.304;2023-03-15T10:09:27;99143.88;;;5.96;45.11
69855;BME280;57146;48.140;16.304;2023-03-15T10:12:03;99133.81;;;6.13;45.35
69855;BME280;57146;48.140;16.304;2023-03-15T10:17:17;99134.00;;;6.22;44.42
69855;BME280;57146;48.140;16.304;2023-03-15T10:19:51;99133.19;;;6.27;44.93
69855;BME280;57146;48.140;16.304;2023-03-15T10:22:29;99125.50;;;6.40;45.17
69855;BME280;57146;48.140;16.304;2023-03-15T10:25:20;99148.34;;;6.59;44.11
69855;BME280;57146;48.140;16.304;2023-03-15T10:28:31;99134.53;;;6.53;43.14
69855;BME280;57146;48.140;16.304;2023-03-15T10:31:11;99126.13;;;6.56;43.53
69855;BME280;57146;48.140;16.304;2023-03-15T10:33:58;99125.50;;;6.69;43.76
69855;BME280;57146;48.140;16.304;2023-03-15T10:36:54;99112.34;;;6.75;43.71
69855;BME280;57146;48.140;16.304;2023-03-15T10:39:23;99129.81;;;6.79;43.60
69855;BME280;57146;48.140;16.304;2023-03-15T10:41:50;99122.31;;;6.72;42.92
69855;BME280;57146;48.140;16.304;2023-03-15T10:44:21;99122.78;;;6.80;43.66
69855;BME280;57146;48.140;16.304;2023-03-15T10:47:05;99122.09;;;6.93;43.53
69855;BME280;57146;48.140;16.304;2023-03-15T10:50:25;99116.53;;;7.00;41.72
69855;BME280;57146;48.140;16.304;2023-03-15T10:52:55;99122.03;;;6.98;41.38
69855;BME280;57146;48.140;16.304;2023-03-15T10:55:42;99122.38;;;6.91;40.32
69855;BME280;57146;48.140;16.304;2023-03-15T10:58:47;99124.44;;;6.94;40.98
69855;BME280;57146;48.140;16.304;2023-03-15T11:01:37;99120.38;;;6.83;40.27
69855;BME280;57146;48.140;16.304;2023-03-15T11:04:19;99109.34;;;6.86;40.67
69855;BME280;57146;48.140;16.304;2023-03-15T11:07:13;99100.94;;;6.89;40.87
69855;BME280;57146;48.140;16.304;2023-03-15T11:09:44;99118.25;;;6.85;40.26
69855;BME280;57146;48.140;16.304;2023-03-15T11:12:24;99116.06;;;6.92;41.14
69855;BME280;57146;48.140;16.304;2023-03-15T11:15:06;99109.75;;;6.99;41.66
69855;BME280;57146;48.140;16.304;2023-03-15T11:17:44;99123.38;;;6.95;41.97
69855;BME280;57146;48.140;16.304;2023-03-15T11:20:26;99106.34;;;6.98;42.24
69855;BME280;57146;48.140;16.304;2023-03-15T11:22:56;99110.66;;;7.08;42.42
69855;BME280;57146;48.140;16.304;2023-03-15T11:25:28;99121.13;;;7.08;40.99
69855;BME280;57146;48.140;16.304;2023-03-15T11:35:42;99125.59;;;7.07;43.36
69855;BME280;57146;48.140;16.304;2023-03-15T11:38:15;99131.59;;;7.08;48.15
69855;BME280;57146;48.140;16.304;2023-03-15T11:40:49;99129.56;;;7.05;48.66
69855;BME280;57146;48.140;16.304;2023-03-15T11:43:39;99127.72;;;7.05;48.81
69855;BME280;57146;48.140;16.304;2023-03-15T11:46:24;99128.50;;;7.06;49.64
69855;BME280;57146;48.140;16.304;2023-03-15T11:49:08;99137.91;;;7.07;49.20
69855;BME280;57146;48.140;16.304;2023-03-15T11:51:39;99121.78;;;7.18;49.52
69855;BME280;57146;48.140;16.304;2023-03-15T11:54:18;99130.59;;;7.28;49.47
69855;BME280;57146;48.140;16.304;2023-03-15T11:56:53;99126.69;;;7.25;44.89
69855;BME280;57146;48.140;16.304;2023-03-15T11:59:28;99120.69;;;7.25;41.86
69855;BME280;57146;48.140;16.304;2023-03-15T12:01:58;99130.22;;;7.15;39.96
69855;BME280;57146;48.140;16.304;2023-03-15T12:04:37;99117.19;;;7.10;39.46
69855;BME280;57146;48.140;16.304;2023-03-15T12:07:22;99120.66;;;7.06;38.50
69855;BME280;57146;48.140;16.304;2023-03-15T12:10:23;99115.34;;;7.11;39.30
69855;BME280;57146;48.140;16.304;2023-03-15T12:12:57;99104.53;;;7.17;39.36
69855;BME280;57146;48.140;16.304;2023-03-15T12:15:50;99106.59;;;7.39;39.05
69855;BME280;57146;48.140;16.304;2023-03-15T12:18:24;99098.41;;;7.46;38.86
69855;BME280;57146;48.140;16.304;2023-03-15T12:21:31;99097.94;;;7.44;38.04
69855;BME280;57146;48.140;16.304;2023-03-15T12:24:05;99102.16;;;7.40;38.45
69855;BME280;57146;48.140;16.304;2023-03-15T12:29:31;99102.81;;;7.70;39.18
69855;BME280;57146;48.140;16.304;2023-03-15T12:37:00;99087.34;;;7.68;37.54
69855;BME280;57146;48.140;16.304;2023-03-15T12:40:05;99090.69;;;7.74;38.86
69855;BME280;57146;48.140;16.304;2023-03-15T12:53:43;99089.41;;;8.23;37.69
69855;BME280;57146;48.140;16.304;2023-03-15T12:58:52;99096.97;;;8.57;36.79
69855;BME280;57146;48.140;16.304;2023-03-15T13:01:46;99096.19;;;8.56;36.74
69855;BME280;57146;48.140;16.304;2023-03-15T13:04:13;99092.50;;;8.57;36.50
69855;BME280;57146;48.140;16.304;2023-03-15T13:06:54;99100.34;;;8.44;42.79
69855;BME280;57146;48.140;16.304;2023-03-15T13:12:39;99098.81;;;8.24;46.05
69855;BME280;57146;48.140;16.304;2023-03-15T13:15:35;99106.19;;;8.22;45.95
69855;BME280;57146;48.140;16.304;2023-03-15T13:18:26;99099.78;;;8.28;44.12
69855;BME280;57146;48.140;16.304;2023-03-15T13:21:30;99092.84;;;8.37;44.35
69855;BME280;57146;48.140;16.304;2023-03-15T13:24:00;99099.66;;;8.38;43.93
69855;BME280;57146;48.140;16.304;2023-03-15T13:31:29;99102.53;;;8.04;46.79
69855;BME280;57146;48.140;16.304;2023-03-15T13:34:16;99102.38;;;7.81;48.24
69855;BME280;57146;48.140;16.304;2023-03-15T13:36:47;99103.50;;;7.75;48.97
69855;BME280;57146;48.140;16.304;2023-03-15T13:39:23;99094.38;;;7.73;48.45
69855;BME280;57146;48.140;16.304;2023-03-15T13:42:06;99097.25;;;7.71;49.45
69855;BME280;57146;48.140;16.304;2023-03-15T13:44:33;99107.97;;;7.75;49.38
69855;BME280;57146;48.140;16.304;2023-03-15T13:47:00;99115.19;;;7.83;48.84
69855;BME280;57146;48.140;16.304;2023-03-15T13:49:32;99102.94;;;7.78;47.22
69855;BME280;57146;48.140;16.304;2023-03-15T13:52:03;99110.09;;;7.73;46.51
69855;BME280;57146;48.140;16.304;2023-03-15T13:54:34;99113.97;;;7.75;47.04
69855;BME280;57146;48.140;16.304;2023-03-15T13:57:05;99118.25;;;7.90;46.69
69855;BME280;57146;48.140;16.304;2023-03-15T14:00:14;99110.59;;;8.07;45.95
69855;BME280;57146;48.140;16.304;2023-03-15T14:02:57;99106.19;;;8.22;46.86
69855;BME280;57146;48.140;16.304;2023-03-15T14:05:29;99121.19;;;8.35;47.55
69855;BME280;57146;48.140;16.304;2023-03-15T14:08:02;99107.00;;;8.36;45.73
69855;BME280;57146;48.140;16.304;2023-03-15T14:10:34;99113.03;;;8.36;47.36
69855;BME280;57146;48.140;16.304;2023-03-15T14:16:42;99116.16;;;8.06;47.43
69855;BME280;57146;48.140;16.304;2023-03-15T14:19:31;99123.69;;;7.94;47.84
69855;BME280;57146;48.140;16.304;2023-03-15T14:22:04;99124.72;;;7.92;48.29
69855;BME280;57146;48.140;16.304;2023-03-15T14:24:39;99124.47;;;7.94;48.25
69855;BME280;57146;48.140;16.304;2023-03-15T14:27:13;99114.44;;;7.96;48.05
69855;BME280;57146;48.140;16.304;2023-03-15T14:29:59;99115.22;;;7.97;45.39
69855;BME280;57146;48.140;16.304;2023-03-15T14:32:33;99118.47;;;8.07;44.90
69855;BME280;57146;48.140;16.304;2023-03-15T14:35:19;99116.47;;;8.18;39.66
69855;BME280;57146;48.140;16.304;2023-03-15T14:38:01;99111.63;;;8.25;38.09
69855;BME280;57146;48.140;16.304;2023-03-15T14:40:30;99115.94;;;8.35;37.42